Time;durP1;ratioP1;P1;durP2;ratioP2;P2;SDS_P1;SDS_P2;PMS_P1;PMS_P2;Temp;Humidity;BMP_temperature;BMP_pressure;BME280_temperature;BME280_humidity;BME280_pressure;Samples;Min_cycle;Max_cycle;Signal;HPM_P1;HPM_P2
2023/10/23 00:02:19;;;;;;;3.43;1.60;;;9.70;99.90;;;;;;4976251;28;20176;-86
2023/10/23 00:04:45;;;;;;;2.83;1.40;;;9.70;99.90;;;;;;4977392;28;20232;-86
2023/10/23 00:07:10;;;;;;;3.40;1.53;;;9.70;99.90;;;;;;4976093;28;20196;-86
2023/10/23 00:09:36;;;;;;;2.47;1.30;;;9.70;99.90;;;;;;4976020;28;20200;-86
2023/10/23 00:12:02;;;;;;;2.57;1.20;;;9.70;99.90;;;;;;4975997;28;20172;-85
2023/10/23 00:14:28;;;;;;;4.00;1.40;;;9.60;99.90;;;;;;4977171;28;20176;-86
2023/10/23 00:16:53;;;;;;;3.80;1.17;;;9.60;99.90;;;;;;4977109;28;20242;-86
2023/10/23 00:19:19;;;;;;;2.07;1.40;;;9.50;99.90;;;;;;4975871;28;20263;-86
2023/10/23 00:21:44;;;;;;;3.00;1.40;;;9.50;99.90;;;;;;4975717;28;20176;-87
2023/10/23 00:24:11;;;;;;;3.03;1.00;;;9.50;99.90;;;;;;4976025;28;20606;-86
2023/10/23 00:26:36;;;;;;;3.10;1.37;;;9.50;99.90;;;;;;4975903;28;20252;-86
2023/10/23 00:29:03;;;;;;;2.73;1.30;;;9.40;99.90;;;;;;4975531;28;20204;-86
2023/10/23 00:31:28;;;;;;;2.73;1.10;;;9.50;99.90;;;;;;4975630;28;20264;-86
2023/10/23 00:33:54;;;;;;;1.57;1.10;;;9.50;99.90;;;;;;4976970;28;20267;-86
2023/10/23 00:36:20;;;;;;;1.87;1.20;;;9.40;99.90;;;;;;4975412;28;20200;-86
2023/10/23 00:38:45;;;;;;;2.53;1.20;;;9.30;99.90;;;;;;4975544;28;20180;-86
2023/10/23 00:41:11;;;;;;;2.70;1.10;;;9.30;99.90;;;;;;4975346;28;20723;-87
2023/10/23 00:43:36;;;;;;;1.67;1.10;;;9.30;99.90;;;;;;4976629;28;20661;-86
2023/10/23 00:46:10;;;;;;;3.17;1.53;;;9.30;99.90;;;;;;4976380;28;20176;-86
2023/10/23 00:48:36;;;;;;;1.50;1.10;;;9.30;99.90;;;;;;4975518;28;20246;-85
2023/10/23 00:51:03;;;;;;;3.27;1.07;;;9.30;99.90;;;;;;4975194;28;20173;-87
2023/10/23 00:53:32;;;;;;;3.13;1.30;;;9.40;99.90;;;;;;4976454;28;20211;-86
2023/10/23 00:55:58;;;;;;;3.10;1.10;;;9.40;99.90;;;;;;4975015;28;20172;-87
2023/10/23 00:58:27;;;;;;;3.10;1.17;;;9.40;99.90;;;;;;5050349;22;20242;-86
2023/10/23 01:00:58;;;;;;;2.73;1.00;;;9.40;99.90;;;;;;4993970;28;20641;-85
2023/10/23 01:03:24;;;;;;;2.60;1.30;;;9.40;99.90;;;;;;4995739;28;20670;-85
2023/10/23 01:05:49;;;;;;;1.33;1.13;;;9.50;99.90;;;;;;4995716;28;20175;-85
2023/10/23 01:08:15;;;;;;;2.97;1.50;;;9.40;99.90;;;;;;4995581;28;20744;-85
2023/10/23 01:10:41;;;;;;;3.63;1.20;;;9.40;99.90;;;;;;4994133;28;20198;-85
2023/10/23 01:13:07;;;;;;;1.50;1.10;;;9.50;99.90;;;;;;4994722;28;20187;-85
2023/10/23 01:15:33;;;;;;;2.90;1.20;;;9.50;99.90;;;;;;4994536;28;20179;-85
2023/10/23 01:17:59;;;;;;;4.20;1.30;;;9.50;99.90;;;;;;4994393;28;20188;-85
2023/10/23 01:20:27;;;;;;;1.57;1.07;;;9.40;99.90;;;;;;4995402;28;20262;-85
2023/10/23 01:23:02;;;;;;;1.30;1.10;;;9.40;99.90;;;;;;4994035;28;20175;-85
2023/10/23 01:25:28;;;;;;;3.13;1.20;;;9.50;99.90;;;;;;4995212;28;20178;-85
2023/10/23 01:27:54;;;;;;;1.80;1.10;;;9.50;99.90;;;;;;5010164;28;20203;-85
2023/10/23 01:30:21;;;;;;;1.43;1.20;;;9.40;99.90;;;;;;4995060;28;20618;-85
2023/10/23 01:32:46;;;;;;;2.47;1.10;;;9.30;99.90;;;;;;4994053;28;20171;-87
2023/10/23 01:35:12;;;;;;;3.20;1.40;;;9.30;99.90;;;;;;4995228;28;20222;-85
2023/10/23 01:37:40;;;;;;;2.53;1.60;;;9.30;99.90;;;;;;4993789;28;20222;-85
2023/10/23 01:40:06;;;;;;;2.60;1.37;;;9.30;99.90;;;;;;4993604;28;20207;-85
2023/10/23 01:42:32;;;;;;;4.03;1.50;;;9.30;99.90;;;;;;4995270;28;20175;-85
2023/10/23 01:44:58;;;;;;;3.07;1.30;;;9.30;99.90;;;;;;4993941;28;20180;-85
2023/10/23 01:47:24;;;;;;;4.13;1.30;;;9.40;99.90;;;;;;4993771;28;20263;-85
2023/10/23 01:49:49;;;;;;;2.10;1.30;;;9.40;99.90;;;;;;4994465;28;20207;-86
2023/10/23 01:52:16;;;;;;;1.83;1.20;;;9.50;99.90;;;;;;4994737;28;20169;-86
2023/10/23 01:54:41;;;;;;;1.80;1.37;;;9.40;99.90;;;;;;4993318;28;20267;-85
2023/10/23 01:57:07;;;;;;;2.50;1.30;;;9.50;99.90;;;;;;4993483;28;20302;-85
2023/10/23 01:59:33;;;;;;;2.80;1.63;;;9.50;99.90;;;;;;4994530;28;20168;-85
2023/10/23 02:01:58;;;;;;;2.37;1.40;;;9.50;99.90;;;;;;4988212;28;20195;-85
2023/10/23 02:04:25;;;;;;;1.83;1.40;;;9.40;99.90;;;;;;4990369;28;20223;-85
2023/10/23 02:06:51;;;;;;;2.20;1.40;;;9.40;99.90;;;;;;4981645;28;20210;-85
2023/10/23 02:09:16;;;;;;;2.97;1.40;;;9.30;99.90;;;;;;4974733;28;20260;-85
2023/10/23 02:11:42;;;;;;;2.13;1.10;;;9.30;99.90;;;;;;4973738;28;20176;-86
2023/10/23 02:14:08;;;;;;;1.73;1.17;;;9.20;99.90;;;;;;4973761;28;20179;-85
2023/10/23 02:16:34;;;;;;;3.17;1.30;;;9.20;99.90;;;;;;4974870;28;20594;-85
2023/10/23 02:18:59;;;;;;;2.30;1.20;;;9.30;99.90;;;;;;4974658;28;20176;-85
2023/10/23 02:21:25;;;;;;;2.63;1.20;;;9.30;99.90;;;;;;4974766;28;20183;-85
2023/10/23 02:23:51;;;;;;;5.30;1.40;;;9.10;99.90;;;;;;4974561;28;20173;-85
2023/10/23 02:26:18;;;;;;;2.50;1.40;;;9.10;99.90;;;;;;4972515;28;20231;-85
2023/10/23 02:28:44;;;;;;;1.73;1.13;;;9.10;99.90;;;;;;4973542;28;20419;-85
2023/10/23 02:31:09;;;;;;;2.30;1.20;;;9.10;99.90;;;;;;4973280;28;20172;-85
2023/10/23 02:33:36;;;;;;;1.93;1.20;;;9.00;99.90;;;;;;4973432;28;20182;-85
2023/10/23 02:36:02;;;;;;;5.80;1.40;;;9.00;99.90;;;;;;4973364;28;20187;-85
2023/10/23 02:38:27;;;;;;;2.67;1.10;;;9.00;99.90;;;;;;4974315;28;20199;-85
2023/10/23 02:40:53;;;;;;;4.30;1.50;;;9.00;99.90;;;;;;5008463;28;20238;-85
2023/10/23 02:43:20;;;;;;;3.47;1.37;;;8.90;99.90;;;;;;4984608;28;20207;-85
2023/10/23 02:45:45;;;;;;;2.00;1.10;;;8.90;99.90;;;;;;4992451;28;20179;-85
2023/10/23 02:48:11;;;;;;;3.17;1.40;;;8.90;99.90;;;;;;4992472;28;20202;-85
2023/10/23 02:50:37;;;;;;;1.30;1.20;;;8.80;99.90;;;;;;4992766;28;20176;-85
2023/10/23 02:53:05;;;;;;;4.10;1.37;;;8.70;99.90;;;;;;4992246;28;20187;-85
2023/10/23 02:55:30;;;;;;;2.10;1.17;;;8.60;99.90;;;;;;4992559;28;20188;-85
2023/10/23 02:57:57;;;;;;;1.90;1.27;;;8.60;99.90;;;;;;4993493;28;20280;-85
2023/10/23 03:00:23;;;;;;;4.53;1.37;;;8.60;99.90;;;;;;4992317;28;20191;-85
2023/10/23 03:02:48;;;;;;;2.40;1.20;;;8.50;99.90;;;;;;4993471;28;20245;-85
2023/10/23 03:05:15;;;;;;;1.50;1.20;;;8.50;99.90;;;;;;4993339;28;20175;-85
2023/10/23 03:07:41;;;;;;;2.23;1.20;;;8.50;99.90;;;;;;4991977;28;20293;-85
2023/10/23 03:10:07;;;;;;;3.00;1.10;;;8.50;99.90;;;;;;4993483;28;20298;-85
2023/10/23 03:12:32;;;;;;;1.77;1.30;;;8.40;99.90;;;;;;4993371;28;20183;-85
2023/10/23 03:14:58;;;;;;;1.63;1.30;;;8.30;99.90;;;;;;4993491;28;20187;-85
2023/10/23 03:17:24;;;;;;;4.50;1.40;;;8.30;99.90;;;;;;4992190;28;20206;-85
2023/10/23 03:19:49;;;;;;;1.93;1.20;;;8.30;99.90;;;;;;4991940;28;20554;-85
2023/10/23 03:22:15;;;;;;;1.93;1.20;;;8.30;99.90;;;;;;4993015;28;20178;-85
2023/10/23 03:24:41;;;;;;;2.43;1.10;;;8.30;99.90;;;;;;4993302;28;20218;-85
2023/10/23 03:27:07;;;;;;;2.10;1.33;;;8.40;99.90;;;;;;4991748;28;20706;-84
2023/10/23 03:29:32;;;;;;;1.50;1.13;;;8.40;99.90;;;;;;4991567;28;20203;-85
2023/10/23 03:31:58;;;;;;;2.00;1.10;;;8.30;99.90;;;;;;4992940;28;20525;-85
2023/10/23 03:34:25;;;;;;;1.20;1.10;;;8.30;99.90;;;;;;4991897;28;20171;-84
2023/10/23 03:36:51;;;;;;;1.53;1.20;;;8.30;99.90;;;;;;4992488;28;20184;-87
2023/10/23 03:39:16;;;;;;;2.37;1.00;;;8.20;99.90;;;;;;4991688;28;20176;-86
2023/10/23 03:41:42;;;;;;;2.57;1.00;;;8.30;99.90;;;;;;4991692;28;20176;-85
2023/10/23 03:44:08;;;;;;;2.10;0.90;;;8.30;99.90;;;;;;4992693;28;20652;-85
2023/10/23 03:46:34;;;;;;;2.97;1.10;;;8.10;99.90;;;;;;4991487;28;20199;-85
2023/10/23 03:48:59;;;;;;;1.67;1.10;;;8.10;99.90;;;;;;4992707;28;20290;-85
2023/10/23 03:51:25;;;;;;;1.97;1.10;;;8.10;99.90;;;;;;4992580;28;20178;-85
2023/10/23 03:53:51;;;;;;;1.17;1.00;;;8.10;99.90;;;;;;4991443;28;20175;-85
2023/10/23 03:56:17;;;;;;;2.53;1.10;;;7.90;99.90;;;;;;4991694;28;20182;-85
2023/10/23 03:58:45;;;;;;;1.80;1.10;;;7.80;99.90;;;;;;4991495;28;20195;-86
2023/10/23 04:01:14;;;;;;;1.13;1.00;;;7.90;99.90;;;;;;4991362;28;20655;-85
2023/10/23 04:03:40;;;;;;;2.63;1.20;;;7.90;99.90;;;;;;4991567;28;20644;-85
2023/10/23 04:06:05;;;;;;;1.63;1.00;;;7.90;99.90;;;;;;4991234;28;20171;-85
2023/10/23 04:08:31;;;;;;;3.20;1.47;;;7.90;99.90;;;;;;4992419;28;20200;-85
2023/10/23 04:10:58;;;;;;;1.60;1.20;;;7.90;99.90;;;;;;4991164;28;20199;-85
2023/10/23 04:13:25;;;;;;;2.37;1.10;;;8.00;99.90;;;;;;4992522;28;20159;-86
2023/10/23 04:15:58;;;;;;;3.23;0.90;;;7.90;99.90;;;;;;4991331;28;20175;-85
2023/10/23 04:18:25;;;;;;;2.97;1.10;;;7.80;99.90;;;;;;4992405;28;20194;-85
2023/10/23 04:21:00;;;;;;;1.90;0.90;;;7.70;99.90;;;;;;4991048;28;20206;-85
2023/10/23 04:23:26;;;;;;;2.23;1.10;;;7.60;99.90;;;;;;4992681;28;20179;-84
2023/10/23 04:25:55;;;;;;;1.47;1.10;;;7.60;99.90;;;;;;4991317;28;20185;-85
2023/10/23 04:28:22;;;;;;;2.00;1.07;;;7.60;99.90;;;;;;4990975;28;20198;-85
2023/10/23 04:30:48;;;;;;;1.93;1.10;;;7.60;99.90;;;;;;4992267;28;20175;-85
2023/10/23 04:33:16;;;;;;;1.80;1.10;;;7.60;99.90;;;;;;4992332;28;20672;-85
2023/10/23 04:35:42;;;;;;;3.27;1.00;;;7.50;99.90;;;;;;4992490;28;20176;-85
2023/10/23 04:38:08;;;;;;;2.10;1.00;;;7.40;99.90;;;;;;4992451;28;20221;-85
2023/10/23 04:40:33;;;;;;;4.10;1.30;;;7.40;99.90;;;;;;4992180;28;20543;-85
2023/10/23 04:42:59;;;;;;;2.80;1.10;;;7.40;99.90;;;;;;4990906;28;20175;-85
2023/10/23 04:45:25;;;;;;;2.50;1.20;;;7.40;99.90;;;;;;4991068;28;20651;-85
2023/10/23 04:47:50;;;;;;;2.50;1.30;;;7.40;99.90;;;;;;4991372;28;20199;-85
2023/10/23 04:50:16;;;;;;;2.53;1.20;;;7.40;99.90;;;;;;4994510;28;20207;-85
2023/10/23 04:52:42;;;;;;;1.60;1.20;;;7.40;99.90;;;;;;4996168;28;20175;-84
2023/10/23 04:55:08;;;;;;;2.40;1.30;;;7.40;99.90;;;;;;4994646;28;20528;-85
2023/10/23 04:57:34;;;;;;;1.40;1.20;;;7.30;99.90;;;;;;4995786;28;20217;-85
2023/10/23 04:59:59;;;;;;;1.03;0.97;;;7.40;99.90;;;;;;4994473;28;20663;-85
2023/10/23 05:02:25;;;;;;;2.10;1.10;;;7.50;99.90;;;;;;4995678;28;20186;-86
2023/10/23 05:04:51;;;;;;;1.00;0.90;;;7.50;99.90;;;;;;4994671;28;20187;-87
2023/10/23 05:07:16;;;;;;;1.53;1.30;;;7.50;99.90;;;;;;4994348;28;20198;-84
2023/10/23 05:09:42;;;;;;;2.43;1.30;;;7.40;99.90;;;;;;4994235;28;20595;-84
2023/10/23 05:12:08;;;;;;;1.73;0.90;;;7.20;99.90;;;;;;4995907;28;20175;-83
2023/10/23 05:14:34;;;;;;;1.30;1.10;;;7.10;99.90;;;;;;4995384;28;20191;-83
2023/10/23 05:16:59;;;;;;;2.50;1.40;;;7.00;99.90;;;;;;4995776;28;20191;-83
2023/10/23 05:19:25;;;;;;;1.70;1.40;;;7.00;99.90;;;;;;4994036;28;20194;-83
2023/10/23 05:21:51;;;;;;;1.73;1.20;;;6.90;99.90;;;;;;4994378;28;20655;-82
2023/10/23 05:24:16;;;;;;;2.23;1.30;;;6.80;99.90;;;;;;4995156;28;20271;-83
2023/10/23 05:26:42;;;;;;;4.37;1.40;;;6.70;99.90;;;;;;4995322;28;20229;-83
2023/10/23 05:29:07;;;;;;;2.60;1.33;;;6.70;99.90;;;;;;4993661;28;20206;-82
2023/10/23 05:31:33;;;;;;;5.13;1.33;;;6.80;99.90;;;;;;4995121;28;20180;-82
2023/10/23 05:33:59;;;;;;;1.67;1.27;;;6.80;99.90;;;;;;4995512;28;20182;-83
2023/10/23 05:36:24;;;;;;;1.50;1.30;;;6.70;99.90;;;;;;4994895;28;20771;-84
2023/10/23 05:38:50;;;;;;;3.90;1.60;;;6.80;99.90;;;;;;4994968;28;20209;-80
2023/10/23 05:41:15;;;;;;;2.70;1.23;;;6.70;99.90;;;;;;4995287;28;20188;-83
2023/10/23 05:43:41;;;;;;;1.77;1.27;;;6.70;99.90;;;;;;4995039;28;20189;-82
2023/10/23 05:46:07;;;;;;;1.70;1.23;;;6.70;99.90;;;;;;4994795;28;20230;-85
2023/10/23 05:48:33;;;;;;;2.50;1.30;;;6.80;99.90;;;;;;4993827;28;20236;-82
2023/10/23 05:51:03;;;;;;;1.30;1.00;;;6.70;99.90;;;;;;4994805;28;20190;-86
2023/10/23 05:53:29;;;;;;;2.50;2.30;;;6.70;99.90;;;;;;4994060;28;20212;-82
2023/10/23 05:56:03;;;;;;;3.73;1.70;;;6.90;99.90;;;;;;4995584;28;20198;-80
2023/10/23 05:58:33;;;;;;;7.63;2.00;;;7.60;99.90;;;;;;4995474;28;20207;-79
2023/10/23 06:01:09;;;;;;;2.30;1.80;;;8.20;99.90;;;;;;4995524;28;20246;-81
2023/10/23 06:03:35;;;;;;;2.50;1.30;;;8.70;99.90;;;;;;4994631;28;20566;-82
2023/10/23 06:06:01;;;;;;;2.07;1.00;;;9.00;99.90;;;;;;4995580;28;20189;-85
2023/10/23 06:08:26;;;;;;;1.00;0.90;;;9.20;69.50;;;;;;4994577;28;20199;-84
2023/10/23 06:10:53;;;;;;;2.13;1.10;;;8.60;1.00;;;;;;4994432;28;20175;-84
2023/10/23 06:13:20;;;;;;;1.07;1.00;;;8.10;1.00;;;;;;4993997;28;20175;-83
2023/10/23 06:15:46;;;;;;;1.20;1.00;;;7.80;90.10;;;;;;4995996;28;20172;-86
2023/10/23 06:18:12;;;;;;;3.20;1.20;;;7.40;99.90;;;;;;4994169;28;20253;-83
2023/10/23 06:20:37;;;;;;;2.83;1.10;;;7.10;99.90;;;;;;4993134;28;20658;-86
2023/10/23 06:23:03;;;;;;;1.87;1.00;;;7.00;99.90;;;;;;4993057;28;20179;-84
2023/10/23 06:25:29;;;;;;;2.00;1.07;;;6.80;99.90;;;;;;4994195;28;20186;-84
2023/10/23 06:27:55;;;;;;;1.50;1.23;;;6.70;99.90;;;;;;4992704;28;20209;-84
2023/10/23 06:30:21;;;;;;;1.43;1.30;;;6.70;99.90;;;;;;4992743;28;20198;-84
2023/10/23 06:32:47;;;;;;;1.83;1.10;;;6.70;99.90;;;;;;4994111;28;20237;-84
2023/10/23 06:35:13;;;;;;;1.67;1.30;;;6.70;99.90;;;;;;4992810;28;20182;-84
2023/10/23 06:37:39;;;;;;;2.30;1.23;;;6.70;99.90;;;;;;4994217;28;20199;-84
2023/10/23 06:40:06;;;;;;;1.10;1.00;;;6.70;99.90;;;;;;4993753;28;20247;-84
2023/10/23 06:42:32;;;;;;;2.83;1.30;;;6.70;99.90;;;;;;4992562;28;20704;-84
2023/10/23 06:44:58;;;;;;;1.77;1.40;;;6.70;99.90;;;;;;4994025;28;20262;-84
2023/10/23 06:47:24;;;;;;;3.90;1.30;;;6.70;99.90;;;;;;4993849;28;20203;-84
2023/10/23 06:49:50;;;;;;;1.73;1.20;;;6.70;99.90;;;;;;4992320;28;20205;-84
2023/10/23 06:52:16;;;;;;;3.73;1.50;;;7.10;99.90;;;;;;4992425;28;20172;-84
2023/10/23 06:54:41;;;;;;;2.57;1.40;;;7.20;99.90;;;;;;4992342;28;20632;-84
2023/10/23 06:57:07;;;;;;;1.37;1.17;;;7.30;99.90;;;;;;5048404;23;20203;-83
2023/10/23 06:59:35;;;;;;;2.67;1.50;;;7.20;99.90;;;;;;4993631;28;20187;-83
2023/10/23 07:02:02;;;;;;;3.20;1.40;;;7.10;99.90;;;;;;4994652;28;20179;-83
2023/10/23 07:04:28;;;;;;;3.70;3.00;;;7.10;99.90;;;;;;4994131;28;20262;-83
2023/10/23 07:06:59;;;;;;;3.10;1.73;;;7.10;99.90;;;;;;4993045;28;20264;-83
2023/10/23 07:09:25;;;;;;;2.63;1.47;;;7.10;99.90;;;;;;4993756;28;20265;-82
2023/10/23 07:11:52;;;;;;;3.23;1.50;;;7.00;99.90;;;;;;4994065;28;20562;-83
2023/10/23 07:14:18;;;;;;;3.63;1.43;;;7.10;99.90;;;;;;4992956;28;20266;-83
2023/10/23 07:16:45;;;;;;;2.73;1.30;;;7.10;99.90;;;;;;4992706;28;20169;-83
2023/10/23 07:19:11;;;;;;;2.53;1.50;;;7.10;99.90;;;;;;4993928;28;20211;-82
2023/10/23 07:21:37;;;;;;;1.40;1.20;;;7.10;99.90;;;;;;4992722;28;20213;-83
2023/10/23 07:24:03;;;;;;;2.40;1.53;;;7.10;99.90;;;;;;4992461;28;20182;-83
2023/10/23 07:26:28;;;;;;;1.67;1.40;;;7.10;99.90;;;;;;4994027;28;20178;-83
2023/10/23 07:28:54;;;;;;;3.17;1.70;;;7.20;99.90;;;;;;4988535;28;20201;-82
2023/10/23 07:31:20;;;;;;;3.03;1.57;;;7.20;99.90;;;;;;4994820;28;20187;-82
2023/10/23 07:33:45;;;;;;;1.60;1.50;;;7.30;99.90;;;;;;4992859;28;20240;-83
2023/10/23 07:36:13;;;;;;;1.87;1.60;;;7.40;99.90;;;;;;4993267;28;20181;-82
2023/10/23 07:38:43;;;;;;;2.50;1.70;;;7.50;99.90;;;;;;4993941;28;20200;-82
2023/10/23 07:41:09;;;;;;;2.43;2.10;;;7.50;99.90;;;;;;4993012;28;20177;-82
2023/10/23 07:43:35;;;;;;;1.63;1.40;;;7.60;99.90;;;;;;4993418;28;20175;-82
2023/10/23 07:46:08;;;;;;;1.50;1.40;;;7.70;99.90;;;;;;4992819;28;20186;-83
2023/10/23 07:48:34;;;;;;;1.90;1.70;;;7.80;99.90;;;;;;4994080;28;20206;-82
2023/10/23 07:51:00;;;;;;;2.70;2.10;;;7.90;99.90;;;;;;4994012;28;20540;-82
2023/10/23 07:53:35;;;;;;;16.43;10.63;;;7.90;99.90;;;;;;4994116;28;20230;-82
2023/10/23 07:56:01;;;;;;;3.73;2.50;;;8.00;99.90;;;;;;4978825;28;20194;-82
2023/10/23 07:58:26;;;;;;;2.20;1.80;;;8.10;99.90;;;;;;4989213;28;20289;-81
2023/10/23 08:01:04;;;;;;;1.70;1.60;;;8.20;99.90;;;;;;4989185;28;20188;-82
2023/10/23 08:03:33;;;;;;;1.60;1.40;;;8.30;99.90;;;;;;4983788;28;20175;-82
2023/10/23 08:06:03;;;;;;;2.47;1.40;;;8.50;99.90;;;;;;4974704;28;20172;-82
2023/10/23 08:08:36;;;;;;;2.03;1.70;;;8.60;99.90;;;;;;4974298;28;20188;-83
2023/10/23 08:11:05;;;;;;;2.23;1.40;;;8.80;99.90;;;;;;4974348;28;20613;-82
2023/10/23 08:13:32;;;;;;;3.17;1.67;;;9.00;99.90;;;;;;4974571;28;20190;-83
2023/10/23 08:15:58;;;;;;;2.93;1.70;;;9.10;99.90;;;;;;4973280;28;20184;-82
2023/10/23 08:18:23;;;;;;;2.00;1.70;;;9.30;99.90;;;;;;4989321;28;20200;-82
2023/10/23 08:20:49;;;;;;;3.33;1.83;;;9.50;99.90;;;;;;4973066;28;20191;-82
2023/10/23 08:23:14;;;;;;;2.70;1.70;;;9.60;99.90;;;;;;4977796;28;20176;-82
2023/10/23 08:25:44;;;;;;;3.40;1.90;;;9.80;99.90;;;;;;4978382;28;20176;-82
2023/10/23 08:28:10;;;;;;;2.87;1.70;;;9.90;99.90;;;;;;4993155;28;20246;-82
2023/10/23 08:30:36;;;;;;;2.10;1.80;;;10.10;99.90;;;;;;4977807;28;20300;-82
2023/10/23 08:33:03;;;;;;;2.07;1.83;;;10.20;99.90;;;;;;4978376;28;20263;-82
2023/10/23 08:35:28;;;;;;;3.13;2.03;;;10.40;99.90;;;;;;4993347;28;20177;-82
2023/10/23 08:37:54;;;;;;;2.03;1.70;;;10.60;99.90;;;;;;4980992;28;20292;-82
2023/10/23 08:40:21;;;;;;;1.87;1.70;;;10.70;99.90;;;;;;4993269;28;20180;-82
2023/10/23 08:42:47;;;;;;;1.97;1.73;;;11.10;99.90;;;;;;4988225;28;20187;-83
2023/10/23 08:45:14;;;;;;;1.80;1.70;;;11.20;99.90;;;;;;5011844;28;20183;-82
2023/10/23 08:47:40;;;;;;;3.90;1.90;;;11.30;99.90;;;;;;5011646;28;20193;-80
2023/10/23 08:50:06;;;;;;;3.13;1.80;;;11.40;99.90;;;;;;5012005;28;20258;-80
2023/10/23 08:52:49;;;;;;;2.37;1.80;;;11.40;99.90;;;;;;4996994;28;20239;-82
2023/10/23 08:55:15;;;;;;;2.83;1.87;;;11.40;99.90;;;;;;4997061;28;20180;-82
2023/10/23 08:57:51;;;;;;;3.67;2.40;;;11.50;99.90;;;;;;4995307;28;20606;-84
2023/10/23 09:00:17;;;;;;;2.27;1.67;;;11.50;99.90;;;;;;5012047;28;20183;-81
2023/10/23 09:02:42;;;;;;;2.53;1.70;;;11.60;99.90;;;;;;5012277;28;20183;-81
2023/10/23 09:05:08;;;;;;;3.07;1.67;;;11.80;99.90;;;;;;5011859;28;20175;-81
2023/10/23 09:07:34;;;;;;;4.13;2.20;;;11.90;99.90;;;;;;4996354;28;20204;-80
2023/10/23 09:10:03;;;;;;;3.40;2.00;;;12.00;99.90;;;;;;4995050;28;20298;-81
2023/10/23 09:12:33;;;;;;;3.37;2.00;;;12.10;99.90;;;;;;5011776;28;20203;-81
2023/10/23 09:15:15;;;;;;;5.13;2.30;;;12.20;99.90;;;;;;4989271;28;20187;-81
2023/10/23 09:17:42;;;;;;;2.83;2.17;;;12.20;99.90;;;;;;4975943;28;20200;-82
2023/10/23 09:20:20;;;;;;;3.40;2.27;;;12.30;99.90;;;;;;4975730;28;20211;-84
2023/10/23 09:22:47;;;;;;;3.37;2.10;;;12.40;99.90;;;;;;4977179;28;20264;-81
2023/10/23 09:25:18;;;;;;;3.90;2.00;;;12.50;99.90;;;;;;4976001;28;20194;-81
2023/10/23 09:27:44;;;;;;;3.00;1.93;;;12.60;99.90;;;;;;4978890;28;20198;-82
2023/10/23 09:30:10;;;;;;;5.13;2.00;;;12.80;99.90;;;;;;4990500;28;20231;-82
2023/10/23 09:32:37;;;;;;;3.23;2.13;;;12.90;99.90;;;;;;4974925;28;20203;-82
2023/10/23 09:35:06;;;;;;;4.53;2.10;;;13.00;99.90;;;;;;4974408;28;20173;-82
2023/10/23 09:37:32;;;;;;;2.43;1.90;;;13.10;99.90;;;;;;4975807;28;20192;-83
2023/10/23 09:40:06;;;;;;;4.33;2.00;;;13.20;99.90;;;;;;4975974;28;20235;-82
2023/10/23 09:42:32;;;;;;;2.50;2.20;;;13.30;99.90;;;;;;4974843;28;20184;-82
2023/10/23 09:45:01;;;;;;;2.97;2.00;;;13.40;99.90;;;;;;4974706;28;20187;-82
2023/10/23 09:47:28;;;;;;;2.43;2.03;;;13.70;99.90;;;;;;4974859;28;20193;-83
2023/10/23 09:49:54;;;;;;;2.97;1.80;;;13.80;99.90;;;;;;4975481;28;20200;-82
2023/10/23 09:52:23;;;;;;;3.27;2.00;;;14.00;99.90;;;;;;4974829;28;20176;-82
2023/10/23 09:54:50;;;;;;;3.50;1.90;;;14.10;20.50;;;;;;4974659;28;20228;-82
2023/10/23 09:57:19;;;;;;;2.73;1.80;;;14.10;60.00;;;;;;4975611;28;20208;-82
2023/10/23 09:59:59;;;;;;;4.33;2.00;;;14.30;65.50;;;;;;4974398;28;20528;-83
2023/10/23 10:02:29;;;;;;;3.57;2.00;;;14.50;1.00;;;;;;4975431;28;20544;-84
2023/10/23 10:05:05;;;;;;;4.33;1.73;;;14.60;99.90;;;;;;4974639;28;20207;-83
2023/10/23 10:07:42;;;;;;;4.00;2.53;;;14.70;98.30;;;;;;4975271;28;20279;-83
2023/10/23 10:10:10;;;;;;;4.87;2.03;;;15.00;85.20;;;;;;4975172;28;20228;-83
2023/10/23 10:12:38;;;;;;;4.43;1.57;;;15.20;1.00;;;;;;4975938;28;20176;-82
2023/10/23 10:15:09;;;;;;;5.57;2.23;;;15.10;99.90;;;;;;4974896;28;20259;-83
2023/10/23 10:17:36;;;;;;;4.33;1.70;;;15.10;1.00;;;;;;4974170;28;20276;-83
2023/10/23 10:20:02;;;;;;;2.97;1.40;;;15.30;99.90;;;;;;4975249;28;20177;-82
2023/10/23 10:22:33;;;;;;;6.13;1.40;;;15.30;99.90;;;;;;4974080;28;20178;-82
2023/10/23 10:24:59;;;;;;;3.50;1.33;;;15.20;1.00;;;;;;4975088;28;20184;-81
2023/10/23 10:27:25;;;;;;;16.43;4.10;;;14.90;99.90;;;;;;4974026;28;20703;-84
2023/10/23 10:29:51;;;;;;;3.10;1.50;;;14.80;99.90;;;;;;4975537;28;20282;-84
2023/10/23 10:32:17;;;;;;;5.77;2.17;;;14.90;1.00;;;;;;4975607;28;20172;-84
2023/10/23 10:34:46;;;;;;;4.77;1.70;;;14.80;1.00;;;;;;4975640;28;20203;-84
2023/10/23 10:37:12;;;;;;;7.13;1.93;;;14.90;1.00;;;;;;4974301;28;20192;-84
2023/10/23 10:39:46;;;;;;;5.17;1.77;;;15.20;1.00;;;;;;4973960;28;20272;-84
2023/10/23 10:42:30;;;;;;;3.47;1.60;;;15.30;99.90;;;;;;4975567;28;20206;-84
2023/10/23 10:44:57;;;;;;;4.83;1.93;;;15.40;99.90;;;;;;4974011;28;20176;-84
2023/10/23 10:47:45;;;;;;;4.27;1.60;;;15.50;99.90;;;;;;4973374;28;20220;-84
2023/10/23 10:50:12;;;;;;;5.10;1.40;;;15.30;1.00;;;;;;4973912;28;20199;-84
2023/10/23 10:52:39;;;;;;;6.40;2.27;;;15.50;1.00;;;;;;4973830;28;20715;-84
2023/10/23 10:55:06;;;;;;;4.40;1.50;;;15.70;1.00;;;;;;4973832;28;20640;-84
2023/10/23 10:57:32;;;;;;;3.33;1.17;;;15.50;99.90;;;;;;4975008;28;20204;-84
2023/10/23 10:59:59;;;;;;;4.83;1.57;;;15.40;99.90;;;;;;4975077;28;20172;-84
2023/10/23 11:02:24;;;;;;;5.00;1.73;;;15.30;99.90;;;;;;4974043;28;20192;-83
2023/10/23 11:04:50;;;;;;;5.10;1.47;;;15.20;99.90;;;;;;4973346;28;20256;-81
2023/10/23 11:07:26;;;;;;;4.47;1.30;;;15.10;1.00;;;;;;4973255;28;20216;-81
2023/10/23 11:09:53;;;;;;;3.47;1.30;;;15.30;1.00;;;;;;4973068;28;20215;-81
2023/10/23 11:12:19;;;;;;;2.40;1.20;;;15.40;99.90;;;;;;4973176;28;20594;-82
2023/10/23 11:14:48;;;;;;;3.53;1.20;;;15.50;99.90;;;;;;4973230;28;20208;-83
2023/10/23 11:17:14;;;;;;;4.17;1.30;;;15.60;99.90;;;;;;4974803;28;20755;-81
2023/10/23 11:19:42;;;;;;;2.60;1.20;;;15.50;99.90;;;;;;4973389;28;20184;-82
2023/10/23 11:22:21;;;;;;;2.80;1.13;;;15.30;99.90;;;;;;4974529;28;20176;-82
2023/10/23 11:24:47;;;;;;;6.87;1.83;;;15.10;99.90;;;;;;4973096;28;20176;-84
2023/10/23 11:27:13;;;;;;;3.47;1.20;;;15.00;1.00;;;;;;4973225;28;20192;-81
2023/10/23 11:29:39;;;;;;;3.13;1.17;;;15.00;99.90;;;;;;4973236;28;20254;-81
2023/10/23 11:32:08;;;;;;;3.07;1.30;;;14.90;99.90;;;;;;4974311;28;20255;-81
2023/10/23 11:34:37;;;;;;;5.43;1.27;;;14.90;1.00;;;;;;4974560;28;20215;-82
2023/10/23 11:37:08;;;;;;;2.67;1.13;;;14.90;99.90;;;;;;4973034;28;20181;-81
2023/10/23 11:39:36;;;;;;;4.33;1.17;;;14.80;58.10;;;;;;4972704;28;20248;-81
2023/10/23 11:42:02;;;;;;;3.47;1.30;;;14.70;99.90;;;;;;4973067;28;20548;-82
2023/10/23 11:44:30;;;;;;;4.10;1.23;;;14.70;1.00;;;;;;4972823;28;20179;-82
2023/10/23 11:46:58;;;;;;;5.70;1.20;;;14.80;1.00;;;;;;4974521;28;20644;-84
2023/10/23 11:49:24;;;;;;;2.20;1.10;;;14.90;99.90;;;;;;4986111;28;20253;-82
2023/10/23 11:51:51;;;;;;;6.40;1.23;;;15.00;1.00;;;;;;4992532;28;20572;-82
2023/10/23 11:54:18;;;;;;;5.30;1.30;;;15.10;1.00;;;;;;4992224;28;20172;-82
2023/10/23 11:56:44;;;;;;;3.00;1.17;;;15.00;99.90;;;;;;4993296;28;20187;-83
2023/10/23 11:59:20;;;;;;;6.40;1.30;;;15.00;1.00;;;;;;4993433;28;20211;-82
2023/10/23 12:01:46;;;;;;;3.63;1.30;;;14.90;99.90;;;;;;4993487;28;20176;-82
2023/10/23 12:04:13;;;;;;;2.30;1.27;;;14.90;99.90;;;;;;4992246;28;20656;-82
2023/10/23 12:06:39;;;;;;;5.97;1.33;;;14.80;93.80;;;;;;4987734;28;20179;-82
2023/10/23 12:09:06;;;;;;;3.83;1.40;;;14.80;1.00;;;;;;4993367;28;20556;-82
2023/10/23 12:11:35;;;;;;;3.10;1.30;;;14.80;1.00;;;;;;4993784;28;20206;-81
2023/10/23 12:14:02;;;;;;;3.50;1.50;;;14.90;99.90;;;;;;4994643;28;20542;-81
2023/10/23 12:16:30;;;;;;;3.43;1.20;;;14.90;99.90;;;;;;4987524;28;20238;-81
2023/10/23 12:18:56;;;;;;;3.43;1.30;;;14.80;1.00;;;;;;4982428;28;20192;-82
2023/10/23 12:21:22;;;;;;;3.33;1.37;;;14.80;99.90;;;;;;4993943;28;20616;-82
2023/10/23 12:23:48;;;;;;;5.97;1.33;;;14.80;1.00;;;;;;4993116;28;20266;-82
2023/10/23 12:26:13;;;;;;;4.47;1.20;;;14.80;1.00;;;;;;4993078;28;20184;-81
2023/10/23 12:28:39;;;;;;;4.40;1.30;;;14.90;1.00;;;;;;4993130;28;20679;-82
2023/10/23 12:31:05;;;;;;;3.43;1.00;;;14.90;1.00;;;;;;4992902;28;20245;-82
2023/10/23 12:33:31;;;;;;;3.90;1.20;;;15.10;1.00;;;;;;4992916;28;20172;-81
2023/10/23 13:04:26;;;;;;;2.83;1.20;;;14.70;1.00;;;;;;5313010;23;20234;-80
2023/10/23 13:06:52;;;;;;;4.43;1.20;;;14.70;1.00;;;;;;4992025;28;20187;-80
2023/10/23 13:09:18;;;;;;;2.70;1.10;;;14.60;1.00;;;;;;5009292;28;20285;-80
2023/10/23 13:11:45;;;;;;;4.33;1.27;;;14.60;9.90;;;;;;5000838;28;20202;-80
2023/10/23 13:14:10;;;;;;;2.50;1.77;;;14.50;1.00;;;;;;4995512;28;20199;-81
2023/10/23 13:16:36;;;;;;;5.80;1.70;;;14.50;99.90;;;;;;4997093;28;20177;-80
2023/10/23 13:19:02;;;;;;;2.97;1.10;;;14.50;73.70;;;;;;4996028;28;20237;-79
2023/10/23 13:21:28;;;;;;;3.20;1.17;;;14.50;99.90;;;;;;4995117;28;20211;-79
2023/10/23 13:23:54;;;;;;;2.23;1.43;;;14.60;97.80;;;;;;4995162;28;20204;-79